createdAt,value
2022-11-08T00:00:12.983Z,15.20
2022-11-08T00:02:44.120Z,15.40
2022-11-08T00:05:33.780Z,15.40
2022-11-08T00:08:23.415Z,15.40
2022-11-08T00:11:12.689Z,15.00
2022-11-08T00:13:59.373Z,15.10
2022-11-08T00:16:30.345Z,14.90
2022-11-08T00:19:01.554Z,15.00
2022-11-08T00:21:32.443Z,14.80
2022-11-08T00:24:03.452Z,15.00
2022-11-08T00:26:34.375Z,15.00
2022-11-08T00:29:05.225Z,15.10
2022-11-08T00:31:36.167Z,14.50
2022-11-08T00:34:07.025Z,15.00
2022-11-08T00:36:37.955Z,14.90
2022-11-08T00:39:10.629Z,14.70
2022-11-08T00:41:41.474Z,14.80
2022-11-08T00:44:12.489Z,15.00
2022-11-08T00:46:43.873Z,14.90
2022-11-08T00:49:14.825Z,14.90
2022-11-08T00:51:45.948Z,15.10
2022-11-08T00:54:19.652Z,14.90
2022-11-08T00:56:50.996Z,15.00
2022-11-08T00:59:21.881Z,14.50
2022-11-08T01:01:52.939Z,14.60
2022-11-08T01:04:23.895Z,14.90
2022-11-08T01:06:54.791Z,14.80
2022-11-08T01:09:25.680Z,14.60
2022-11-08T01:11:56.533Z,14.50
2022-11-08T01:14:27.411Z,14.70
2022-11-08T01:16:58.285Z,14.80
2022-11-08T01:19:29.134Z,14.80
2022-11-08T01:21:59.999Z,14.70
2022-11-08T01:24:30.893Z,14.90
2022-11-08T01:27:01.779Z,14.60
2022-11-08T01:29:33.654Z,14.80
2022-11-08T01:32:04.691Z,14.90
2022-11-08T01:34:35.614Z,14.70
2022-11-08T01:37:06.465Z,14.80
2022-11-08T01:39:37.310Z,14.30
2022-11-08T01:42:08.168Z,14.90
2022-11-08T01:45:55.928Z,14.40
2022-11-08T01:48:28.398Z,14.50
2022-11-08T01:51:00.596Z,14.60
2022-11-08T01:53:31.532Z,14.40
2022-11-08T01:56:03.246Z,14.70
2022-11-08T01:58:37.181Z,14.80
2022-11-08T02:01:08.887Z,14.60
2022-11-08T02:03:41.739Z,14.60
2022-11-08T02:06:13.497Z,14.50
2022-11-08T02:08:45.203Z,14.40
2022-11-08T02:11:17.784Z,14.60
2022-11-08T02:13:48.685Z,14.40
2022-11-08T02:16:19.513Z,14.50
2022-11-08T02:18:50.531Z,14.40
2022-11-08T02:21:35.668Z,14.40
2022-11-08T02:24:12.452Z,14.30
2022-11-08T02:26:46.446Z,14.50
2022-11-08T02:29:31.457Z,14.20
2022-11-08T02:32:04.526Z,14.10
2022-11-08T02:34:47.591Z,14.30
2022-11-08T02:37:21.703Z,13.90
2022-11-08T02:39:52.570Z,13.90
2022-11-08T02:42:23.511Z,13.80
2022-11-08T02:44:54.348Z,13.80
2022-11-08T02:47:26.535Z,13.50
2022-11-08T02:49:57.446Z,13.70
2022-11-08T02:52:28.356Z,13.80
2022-11-08T02:54:59.225Z,13.40
2022-11-08T02:57:32.867Z,13.80
2022-11-08T03:00:04.483Z,13.80
2022-11-08T03:02:35.394Z,13.40
2022-11-08T03:05:06.802Z,13.50
2022-11-08T03:07:37.671Z,13.20
2022-11-08T03:10:08.922Z,13.10
2022-11-08T03:12:40.030Z,13.60
2022-11-08T03:15:13.421Z,14.00
2022-11-08T03:17:44.530Z,13.70
2022-11-08T03:20:15.401Z,13.90
2022-11-08T03:22:46.872Z,13.80
2022-11-08T03:25:17.789Z,14.10
2022-11-08T03:27:48.683Z,14.00
2022-11-08T03:30:19.671Z,13.90
2022-11-08T03:32:50.526Z,13.80
2022-11-08T03:35:21.367Z,13.70
2022-11-08T03:37:54.654Z,13.70
2022-11-08T03:40:26.444Z,13.90
2022-11-08T03:42:57.704Z,13.70
2022-11-08T03:45:28.535Z,14.00
2022-11-08T03:47:59.573Z,14.00
2022-11-08T03:50:30.468Z,13.60
2022-11-08T03:53:01.419Z,13.80
2022-11-08T03:55:32.377Z,13.80
2022-11-08T03:58:03.261Z,13.70
2022-11-08T04:00:34.144Z,13.90
2022-11-08T04:03:04.993Z,13.60
2022-11-08T04:05:35.921Z,14.10
2022-11-08T04:08:06.843Z,14.20
2022-11-08T04:10:37.737Z,14.30
2022-11-08T04:13:28.567Z,14.00
2022-11-08T04:15:59.528Z,13.50
2022-11-08T04:18:49.139Z,13.50
2022-11-08T04:21:21.711Z,13.30
2022-11-08T04:23:52.979Z,13.50
2022-11-08T04:26:23.880Z,13.30
2022-11-08T04:28:54.746Z,13.30
2022-11-08T04:31:25.625Z,13.30
2022-11-08T04:33:56.459Z,13.50
2022-11-08T04:36:27.430Z,13.80
2022-11-08T04:38:58.278Z,13.60
2022-11-08T04:41:29.198Z,13.20
2022-11-08T04:44:00.139Z,13.10
2022-11-08T04:46:31.106Z,13.20
2022-11-08T04:49:01.958Z,13.30
2022-11-08T04:51:34.181Z,13.30
2022-11-08T04:54:07.624Z,13.20
2022-11-08T04:56:38.859Z,13.40
2022-11-08T04:59:12.156Z,13.30
2022-11-08T05:01:46.013Z,13.20
2022-11-08T05:04:17.054Z,13.30
2022-11-08T05:06:47.901Z,13.20
2022-11-08T05:09:18.947Z,13.30
2022-11-08T05:11:49.822Z,13.20
2022-11-08T05:14:20.703Z,13.20
2022-11-08T05:16:51.655Z,13.00
2022-11-08T05:19:41.391Z,12.90
2022-11-08T05:22:30.711Z,13.20
2022-11-08T05:25:01.557Z,13.40
2022-11-08T05:27:32.467Z,13.60
2022-11-08T05:30:12.107Z,13.50
2022-11-08T05:32:43.095Z,13.30
2022-11-08T05:35:14.061Z,13.20
2022-11-08T05:37:44.950Z,13.00
2022-11-08T05:40:16.027Z,13.10
2022-11-08T05:42:46.901Z,13.30
2022-11-08T05:45:17.841Z,13.40
2022-11-08T05:47:49.514Z,13.70
2022-11-08T05:50:20.647Z,13.80
2022-11-08T05:52:54.986Z,13.70
2022-11-08T05:55:26.775Z,13.60
2022-11-08T05:57:57.763Z,13.60
2022-11-08T06:00:28.620Z,13.40
2022-11-08T06:03:01.971Z,13.60
2022-11-08T06:05:39.145Z,13.60
2022-11-08T06:08:10.017Z,13.40
2022-11-08T06:10:40.847Z,13.40
2022-11-08T06:13:11.851Z,13.70
2022-11-08T06:15:42.729Z,13.70
2022-11-08T06:18:13.602Z,13.60
2022-11-08T06:20:44.430Z,13.40
2022-11-08T06:23:15.467Z,13.50
2022-11-08T06:25:47.716Z,13.40
2022-11-08T06:28:18.947Z,13.30
2022-11-08T06:30:50.215Z,13.40
2022-11-08T06:33:22.002Z,13.30
2022-11-08T06:35:53.142Z,13.30
2022-11-08T06:38:24.228Z,13.50
2022-11-08T06:40:55.204Z,13.70
2022-11-08T06:43:26.514Z,13.50
2022-11-08T06:46:04.947Z,13.60
2022-11-08T06:48:36.411Z,13.50
2022-11-08T06:51:07.326Z,13.30
2022-11-08T06:53:38.660Z,13.40
2022-11-08T06:56:10.499Z,13.40
2022-11-08T06:58:41.615Z,13.40
2022-11-08T07:01:13.401Z,13.40
2022-11-08T07:03:44.340Z,13.40
2022-11-08T07:06:15.207Z,13.30
2022-11-08T07:08:46.037Z,13.30
2022-11-08T07:11:17.233Z,13.50
2022-11-08T07:13:48.120Z,13.70
2022-11-08T07:16:19.026Z,13.70
2022-11-08T07:18:51.393Z,13.90
2022-11-08T07:21:23.057Z,13.00
2022-11-08T07:23:53.936Z,13.30
2022-11-08T07:26:24.823Z,13.80
2022-11-08T07:28:55.662Z,13.80
2022-11-08T07:31:26.595Z,13.50
2022-11-08T07:33:57.438Z,12.90
2022-11-08T07:36:28.309Z,13.70
2022-11-08T07:39:02.432Z,13.60
2022-11-08T07:41:36.540Z,14.00
2022-11-08T07:44:07.392Z,13.90
2022-11-08T07:46:38.395Z,14.10
2022-11-08T07:49:09.248Z,14.00
2022-11-08T07:51:41.106Z,13.80
2022-11-08T07:54:12.100Z,13.60
2022-11-08T07:56:43.141Z,13.50
2022-11-08T07:59:14.074Z,13.50
2022-11-08T08:01:44.999Z,13.60
2022-11-08T08:04:15.911Z,13.60
2022-11-08T08:06:46.788Z,13.80
2022-11-08T08:09:17.662Z,14.10
2022-11-08T08:11:48.592Z,14.20
2022-11-08T08:14:19.619Z,14.60
2022-11-08T08:16:51.137Z,14.90
2022-11-08T08:19:21.967Z,14.80
2022-11-08T08:21:52.822Z,14.90
2022-11-08T08:24:23.665Z,14.80
2022-11-08T08:26:55.122Z,15.10
2022-11-08T08:29:26.149Z,15.10
2022-11-08T08:31:57.038Z,15.10
2022-11-08T08:34:27.906Z,15.10
2022-11-08T08:36:58.849Z,14.70
2022-11-08T08:39:29.766Z,14.90
2022-11-08T08:42:00.687Z,14.90
2022-11-08T08:44:31.508Z,15.30
2022-11-08T08:47:02.375Z,15.50
2022-11-08T08:49:33.218Z,15.70
2022-11-08T08:52:04.287Z,15.80
2022-11-08T08:54:35.132Z,15.80
2022-11-08T08:57:06.071Z,15.40
2022-11-08T09:02:27.734Z,16.20
2022-11-08T09:04:59.134Z,16.50
2022-11-08T09:07:30.017Z,16.00
2022-11-08T09:10:01.238Z,16.10
2022-11-08T09:12:32.765Z,16.30
2022-11-08T09:15:05.991Z,16.30
2022-11-08T09:17:36.910Z,16.30
2022-11-08T09:20:08.884Z,16.50
2022-11-08T09:22:40.230Z,16.80
2022-11-08T09:25:11.147Z,16.70
2022-11-08T09:27:42.275Z,16.80
2022-11-08T09:30:13.332Z,17.20
2022-11-08T09:33:00.355Z,17.10
2022-11-08T09:35:32.032Z,17.20
2022-11-08T09:38:02.893Z,17.20
2022-11-08T09:40:53.174Z,17.50
2022-11-08T09:43:28.530Z,17.30
2022-11-08T09:45:59.602Z,17.50
2022-11-08T09:48:39.060Z,17.70
2022-11-08T09:51:18.807Z,17.60
2022-11-08T09:53:55.511Z,17.90
2022-11-08T09:56:31.333Z,17.80
2022-11-08T09:59:20.299Z,17.90
2022-11-08T10:01:51.186Z,18.00
2022-11-08T10:04:25.715Z,18.10
2022-11-08T10:07:20.959Z,18.20
2022-11-08T10:10:34.680Z,18.20
2022-11-08T10:13:39.415Z,18.50
2022-11-08T10:16:34.727Z,18.60
2022-11-08T10:19:23.187Z,18.40
2022-11-08T10:22:03.955Z,18.70
2022-11-08T10:24:55.040Z,18.90
2022-11-08T10:27:43.237Z,18.90
2022-11-08T10:30:27.788Z,18.90
2022-11-08T10:32:58.739Z,19.00
2022-11-08T10:35:41.924Z,18.80
2022-11-08T10:38:24.657Z,19.30
2022-11-08T10:41:26.449Z,19.10
2022-11-08T10:44:26.128Z,19.10
2022-11-08T10:46:56.934Z,19.30
2022-11-08T10:49:35.198Z,19.40
2022-11-08T10:52:12.126Z,19.50
2022-11-08T10:54:53.609Z,19.60
2022-11-08T10:57:29.070Z,19.50
2022-11-08T11:00:21.246Z,19.80
2022-11-08T11:03:10.928Z,19.60
2022-11-08T11:05:44.687Z,19.90
2022-11-08T11:08:17.122Z,20.10
2022-11-08T11:10:49.778Z,20.10
2022-11-08T11:13:30.543Z,19.70
2022-11-08T11:16:05.542Z,19.70
2022-11-08T11:18:46.455Z,19.90
2022-11-08T11:21:20.982Z,19.90
2022-11-08T11:24:07.163Z,20.10
2022-11-08T11:27:00.909Z,20.30
2022-11-08T11:29:37.439Z,20.40
2022-11-08T11:32:35.218Z,20.20
2022-11-08T11:35:13.910Z,20.50
2022-11-08T11:37:48.437Z,20.40
2022-11-08T11:40:56.352Z,20.60
2022-11-08T11:44:17.100Z,20.50
2022-11-08T11:47:04.977Z,20.80
2022-11-08T11:49:36.287Z,21.10
2022-11-08T11:52:17.516Z,21.50
2022-11-08T11:54:50.258Z,21.40
2022-11-08T11:58:12.419Z,21.90
2022-11-08T12:00:58.126Z,21.90
2022-11-08T12:04:05.816Z,22.10
2022-11-08T12:07:05.494Z,22.00
2022-11-08T12:10:04.894Z,22.30
2022-11-08T12:13:22.035Z,22.20
2022-11-08T12:16:26.435Z,22.80
2022-11-08T12:19:16.014Z,22.80
2022-11-08T12:22:27.828Z,23.50
2022-11-08T12:25:17.255Z,24.20
2022-11-08T12:28:18.120Z,24.30
2022-11-08T12:31:05.454Z,24.20
2022-11-08T12:33:58.321Z,23.80
2022-11-08T12:36:41.062Z,24.40
2022-11-08T12:39:34.382Z,24.30
2022-11-08T12:42:20.029Z,24.30
2022-11-08T12:44:56.561Z,23.90
2022-11-08T12:48:02.086Z,23.80
2022-11-08T12:50:42.782Z,23.70
2022-11-08T12:53:48.986Z,23.80
2022-11-08T12:56:34.547Z,23.60
2022-11-08T12:59:26.660Z,24.00
2022-11-08T13:01:58.669Z,23.80
2022-11-08T13:04:39.317Z,23.90
2022-11-08T13:07:34.435Z,23.30
2022-11-08T13:10:12.335Z,23.50
2022-11-08T13:13:18.632Z,23.40
2022-11-08T13:16:10.664Z,23.60
2022-11-08T13:19:01.294Z,23.90
2022-11-08T13:21:38.449Z,23.90
2022-11-08T13:24:38.437Z,23.70
2022-11-08T13:27:45.602Z,23.80
2022-11-08T13:30:16.441Z,23.70
2022-11-08T13:32:55.363Z,23.30
2022-11-08T13:35:43.258Z,23.10
2022-11-08T13:38:21.347Z,23.40
2022-11-08T13:41:20.923Z,23.40
2022-11-08T13:43:56.359Z,23.30
2022-11-08T13:46:27.328Z,23.00
2022-11-08T13:48:58.154Z,23.20
2022-11-08T13:51:36.462Z,23.00
2022-11-08T13:54:22.700Z,23.10
2022-11-08T13:57:01.853Z,22.80
2022-11-08T13:59:33.000Z,22.70
2022-11-08T14:02:25.345Z,22.60
2022-11-08T14:05:23.765Z,22.60
2022-11-08T14:08:12.989Z,22.60
2022-11-08T14:11:10.982Z,22.60
2022-11-08T14:13:59.915Z,22.30
2022-11-08T14:16:42.768Z,22.70
2022-11-08T14:19:26.042Z,22.40
2022-11-08T14:21:59.445Z,22.40
2022-11-08T14:24:36.148Z,22.60
2022-11-08T14:27:07.157Z,22.50
2022-11-08T14:29:38.570Z,22.60
2022-11-08T14:32:19.730Z,22.30
2022-11-08T14:34:50.657Z,22.40
2022-11-08T14:37:27.459Z,22.30
2022-11-08T14:39:58.367Z,22.20
2022-11-08T14:42:29.238Z,22.40
2022-11-08T14:45:00.231Z,22.20
2022-11-08T14:47:32.506Z,22.30
2022-11-08T14:50:03.679Z,22.20
2022-11-08T14:52:34.633Z,22.20
2022-11-08T14:55:11.882Z,22.20
2022-11-08T14:57:45.093Z,22.00
2022-11-08T15:00:26.863Z,22.00
2022-11-08T15:03:03.696Z,21.90
2022-11-08T15:05:45.652Z,22.00
2022-11-08T15:08:45.026Z,21.90
2022-11-08T15:11:30.762Z,21.90
2022-11-08T15:14:18.578Z,21.80
2022-11-08T15:16:58.645Z,21.70
2022-11-08T15:19:44.386Z,21.60
2022-11-08T15:22:36.612Z,21.40
2022-11-08T15:25:25.483Z,21.40
2022-11-08T15:28:12.844Z,21.40
2022-11-08T15:30:45.578Z,21.30
2022-11-08T15:33:25.232Z,21.50
2022-11-08T15:35:56.205Z,21.40
2022-11-08T15:38:30.387Z,21.20
2022-11-08T15:41:05.315Z,21.10
2022-11-08T15:43:40.359Z,21.10
2022-11-08T15:46:38.255Z,21.10
2022-11-08T15:49:28.438Z,21.00
2022-11-08T15:51:59.304Z,20.80
2022-11-08T15:54:30.138Z,20.70
2022-11-08T15:57:01.012Z,20.90
2022-11-08T15:59:35.868Z,20.70
2022-11-08T16:02:13.379Z,20.60
2022-11-08T16:04:44.575Z,20.60
2022-11-08T16:07:15.545Z,20.50
2022-11-08T16:09:46.495Z,20.60
2022-11-08T16:12:17.502Z,20.40
2022-11-08T16:14:48.390Z,20.30
2022-11-08T16:17:19.332Z,19.90
2022-11-08T16:19:50.209Z,20.20
2022-11-08T16:22:21.081Z,20.00
2022-11-08T16:24:51.911Z,19.90
2022-11-08T16:27:22.789Z,19.90
2022-11-08T16:29:53.629Z,19.80
2022-11-08T16:32:24.517Z,20.10
2022-11-08T16:34:55.355Z,20.10
2022-11-08T16:37:26.288Z,20.00
2022-11-08T16:39:57.138Z,20.00
2022-11-08T16:42:28.047Z,20.00
2022-11-08T16:44:58.919Z,20.00
2022-11-08T16:47:30.817Z,20.00
2022-11-08T16:50:01.804Z,19.90
2022-11-08T16:52:33.128Z,19.90
2022-11-08T16:55:04.279Z,19.80
2022-11-08T16:57:35.599Z,19.80
2022-11-08T17:00:09.167Z,19.80
2022-11-08T17:02:50.559Z,19.90
2022-11-08T17:05:24.795Z,19.80
2022-11-08T17:07:56.346Z,20.10
2022-11-08T17:10:30.155Z,19.80
2022-11-08T17:13:01.238Z,19.90
2022-11-08T17:15:32.469Z,20.00
2022-11-08T17:18:04.237Z,19.80
2022-11-08T17:20:36.323Z,19.90
2022-11-08T17:23:09.018Z,19.50
2022-11-08T17:25:42.965Z,19.50
2022-11-08T17:28:14.596Z,19.60
2022-11-08T17:30:45.454Z,19.70
2022-11-08T17:33:16.652Z,19.40
2022-11-08T17:35:47.760Z,19.40
2022-11-08T17:38:18.605Z,19.40
2022-11-08T17:40:49.466Z,19.10
2022-11-08T17:43:20.899Z,19.50
2022-11-08T17:45:51.830Z,19.50
2022-11-08T17:48:23.148Z,19.40
2022-11-08T17:50:54.112Z,19.50
2022-11-08T17:53:25.142Z,19.40
2022-11-08T17:55:58.765Z,19.30
2022-11-08T17:58:32.420Z,19.40
2022-11-08T18:01:06.260Z,19.60
2022-11-08T18:03:37.395Z,19.30
2022-11-08T18:06:12.010Z,19.50
2022-11-08T18:08:48.863Z,19.50
2022-11-08T18:11:19.776Z,19.30
2022-11-08T18:13:50.979Z,19.50
2022-11-08T18:16:22.502Z,19.40
2022-11-08T18:18:54.579Z,19.60
2022-11-08T18:21:25.619Z,19.60
2022-11-08T18:23:59.742Z,19.30
2022-11-08T18:26:30.963Z,19.50
2022-11-08T18:29:02.991Z,19.30
2022-11-08T18:31:34.449Z,19.40
2022-11-08T18:34:05.317Z,19.30
2022-11-08T18:36:36.261Z,19.50
2022-11-08T18:39:07.190Z,19.50
2022-11-08T18:41:38.113Z,19.30
2022-11-08T18:44:08.997Z,19.30
2022-11-08T18:46:43.261Z,19.40
2022-11-08T18:49:14.662Z,19.30
2022-11-08T18:51:46.372Z,19.30
2022-11-08T18:54:17.322Z,19.10
2022-11-08T18:56:48.402Z,19.20
2022-11-08T18:59:19.558Z,19.10
2022-11-08T19:01:53.056Z,19.00
2022-11-08T19:04:24.617Z,19.10
2022-11-08T19:06:55.551Z,18.80
2022-11-08T19:09:26.990Z,19.00
2022-11-08T19:12:03.042Z,19.10
2022-11-08T19:14:36.863Z,18.90
2022-11-08T19:17:08.292Z,19.00
2022-11-08T19:19:39.353Z,19.10
2022-11-08T19:22:11.246Z,18.90
2022-11-08T19:24:42.167Z,19.10
2022-11-08T19:27:13.021Z,19.00
2022-11-08T19:29:43.889Z,19.10
2022-11-08T19:32:14.795Z,19.00
2022-11-08T19:34:47.062Z,19.10
2022-11-08T19:37:18.294Z,19.10
2022-11-08T19:39:52.207Z,19.00
2022-11-08T19:42:23.122Z,19.30
2022-11-08T19:44:53.981Z,19.30
2022-11-08T19:47:24.815Z,19.20
2022-11-08T19:49:55.682Z,19.10
2022-11-08T19:52:26.550Z,19.50
2022-11-08T19:54:57.411Z,19.40
2022-11-08T19:57:29.735Z,19.50
2022-11-08T20:00:01.725Z,19.40
2022-11-08T20:02:32.614Z,19.10
2022-11-08T20:05:04.519Z,19.40
2022-11-08T20:07:35.443Z,19.50
2022-11-08T20:10:07.117Z,19.50
2022-11-08T20:12:38.101Z,19.50
2022-11-08T20:15:09.304Z,19.50
2022-11-08T20:17:40.187Z,19.10
2022-11-08T20:20:11.711Z,19.60
2022-11-08T20:22:47.861Z,19.50
2022-11-08T20:25:19.008Z,19.20
2022-11-08T20:27:49.857Z,19.50
2022-11-08T20:30:20.821Z,19.50
2022-11-08T20:32:51.660Z,19.40
2022-11-08T20:35:23.499Z,19.30
2022-11-08T20:37:57.343Z,19.20
2022-11-08T20:40:28.219Z,19.20
2022-11-08T20:42:59.040Z,19.10
2022-11-08T20:45:29.903Z,19.20
2022-11-08T20:48:02.625Z,19.10
2022-11-08T20:50:34.892Z,18.90
2022-11-08T20:53:06.402Z,19.00
2022-11-08T20:55:37.329Z,18.90
2022-11-08T20:58:08.229Z,18.90
2022-11-08T21:00:57.426Z,18.90
2022-11-08T21:03:30.339Z,19.00
2022-11-08T21:06:04.938Z,18.90
2022-11-08T21:11:30.546Z,19.00
2022-11-08T21:14:03.041Z,19.00
2022-11-08T21:16:52.602Z,19.10
2022-11-08T21:19:25.422Z,18.80
2022-11-08T21:22:15.012Z,18.70
2022-11-08T21:24:49.217Z,18.60
2022-11-08T21:27:20.283Z,18.60
2022-11-08T21:29:51.133Z,18.60
2022-11-08T21:32:22.099Z,18.80
2022-11-08T21:34:52.949Z,18.80
2022-11-08T21:37:23.899Z,18.80
2022-11-08T21:39:54.718Z,18.90
2022-11-08T21:42:25.560Z,18.90
2022-11-08T21:44:56.459Z,18.80
2022-11-08T21:47:27.363Z,18.90
2022-11-08T21:49:58.320Z,19.00
2022-11-08T21:52:29.173Z,19.00
2022-11-08T21:55:00.038Z,19.10
2022-11-08T21:57:30.869Z,19.10
2022-11-08T22:00:01.725Z,19.10
2022-11-08T22:02:32.921Z,19.20
2022-11-08T22:05:04.672Z,19.10
2022-11-08T22:07:35.911Z,18.90
2022-11-08T22:10:08.602Z,18.80
2022-11-08T22:12:40.758Z,18.90
2022-11-08T22:15:11.739Z,18.60
2022-11-08T22:18:00.967Z,18.40
2022-11-08T22:20:33.406Z,18.30
2022-11-08T22:23:08.797Z,18.10
2022-11-08T22:25:42.657Z,18.10
2022-11-08T22:28:13.509Z,18.10
2022-11-08T22:30:51.195Z,17.90
2022-11-08T22:33:22.317Z,17.90
2022-11-08T22:35:53.164Z,17.90
2022-11-08T22:38:24.001Z,17.90
2022-11-08T22:40:54.885Z,17.90
2022-11-08T22:43:25.858Z,17.80
2022-11-08T22:45:56.724Z,18.20
2022-11-08T22:48:27.638Z,17.90
2022-11-08T22:50:58.599Z,18.00
2022-11-08T22:53:29.666Z,17.90
2022-11-08T22:56:01.006Z,17.90
2022-11-08T22:58:32.398Z,17.80
2022-11-08T23:01:03.751Z,18.00
2022-11-08T23:03:34.581Z,18.20
2022-11-08T23:06:05.448Z,18.10
2022-11-08T23:08:36.312Z,18.10
2022-11-08T23:11:26.486Z,18.10
2022-11-08T23:14:15.889Z,18.40
2022-11-08T23:16:47.148Z,18.50
2022-11-08T23:19:41.290Z,18.40
2022-11-08T23:22:34.605Z,18.10
2022-11-08T23:25:06.230Z,18.40
2022-11-08T23:27:55.429Z,18.40
2022-11-08T23:30:44.914Z,18.20
2022-11-08T23:33:15.787Z,18.20
2022-11-08T23:36:05.319Z,18.10
2022-11-08T23:38:36.538Z,17.80
2022-11-08T23:41:26.600Z,18.00
2022-11-08T23:44:16.056Z,17.90
2022-11-08T23:46:46.939Z,17.90
2022-11-08T23:49:17.780Z,17.80
2022-11-08T23:51:48.766Z,17.90
2022-11-08T23:54:19.902Z,17.80
2022-11-08T23:56:52.339Z,17.80
2022-11-08T23:59:23.152Z,17.70
